Lemay, Missouri
Current Conditions -  °F | °C
As of 7:13 AM on Friday 28 Nov 2014 (Local Time) from KCPS Reporting Station
Haze Haze  
Wind Chill: 18°   Ceiling: Unl
Heat Index: 27°   Visibility: 5mi
Dew Point: 24°   Wind: 9mph
Humidity: 89%   Direction: 150°SSE
Pressure: 30.26"   Gusts: NA
Location:  38.5192°N, 90.2945°W
Report Text: KCPS 281313Z 15008KT 5SM BR FEW009 M03/M04 A3026 RMK AO2 T10281044
Loading
Personal Weather Stations






























Interactive Weather Map New forecast layout! Learn more

10-Day Weather Forecast

Advertisements
Track Severe Weather on mobile